Startpagina
METAR-TAF:

METAR-TAF

Vliegvelden :

Brunei, Brunei

Brunei International Airport

breedte: 04-56N, lengte: 114-56E, hoogte: 22 m

Actueel weer

Dit bericht is 35 minuten geleden gemaakt, om 00:30 UTC
Wind 3 kt uit het zuidzuidwesten
Temperatuur 26°C
Vochtigheid 89%
Druk 1010 hPa
Zicht 10 km of meer
Weinig wolken op 1500 ft
Weinig wolken op 1600 ft, Cumulonimbus.
Verspreide wolken op 14000 ft
Gebroken wolken op 28000 ft

METAR: WBSB 190030Z 21003KT 9999 FEW015 FEW016CB SCT140 BKN280 26/24 Q1010 NOSIG

Tijdstip: 09:05 (01:05 UTC)

Verwachting

Dit bericht is 2 uur en het 5 minuten geleden gemaakt, om 23:00 UTC
Verwachting geldig van 19 om 00 UTC tot 20 om 06 UTC
Wind 4 kt uit het zuidzuidwesten
Zicht 10 km of meer
Weinig wolken op 1400 ft
Weinig wolken op 1500 ft, Cumulonimbus.
Wijzigt naar
van 19 om 04 UTC tot 19 om 06 UTC
Wind 8 kt uit het westen
Weinig wolken op 1600 ft
Weinig wolken op 1700 ft, Cumulonimbus.

TAF: WBSB 182300Z 1900/2006 20004KT 9999 FEW014 FEW015CB BECMG 1904/1906 26008KT FEW016 FEW017CB

Waarnemingen en weersverwachtingen van meer dan 4000 vliegvelden (METAR en TAF).

De beschikbare stations zijn de gele en rode punten op de kaart.

Ga met uw muis naar het station om de naam te zien.

Klik dan om waarnemingen en weersverwachtingen te zien.

kaart wijzigen: klik op de groene knoppen met een zwart kruis om in te zoomen, op de groene knop met een streepje om uit te zoomen of op de groene pijlen voor aangrenzende kaarten.


METAR-TAF: